createdAt,value
2018-05-04T00:00:28.337Z,0
2018-05-04T00:01:08.861Z,0
2018-05-04T00:01:49.383Z,0
2018-05-04T00:02:29.918Z,0
2018-05-04T00:03:10.439Z,0
2018-05-04T00:03:50.964Z,0
2018-05-04T00:04:31.495Z,0
2018-05-04T00:05:12.026Z,0
2018-05-04T00:05:52.547Z,0
2018-05-04T00:06:33.075Z,0
2018-05-04T00:07:13.596Z,0
2018-05-04T00:07:54.128Z,0
2018-05-04T00:08:34.638Z,0
2018-05-04T00:09:16.113Z,0
2018-05-04T00:09:56.641Z,0
2018-05-04T00:10:37.171Z,0
2018-05-04T00:11:17.695Z,0
2018-05-04T00:11:58.207Z,0
2018-05-04T00:12:38.737Z,0
2018-05-04T00:13:19.268Z,0
2018-05-04T00:13:59.795Z,0
2018-05-04T00:14:40.316Z,0
2018-05-04T00:15:20.844Z,0
2018-05-04T00:16:01.848Z,0
2018-05-04T00:16:41.887Z,0
2018-05-04T00:17:22.413Z,0
2018-05-04T00:18:02.942Z,0
2018-05-04T00:18:43.472Z,0
2018-05-04T00:19:24.005Z,0
2018-05-04T00:20:04.527Z,0
2018-05-04T00:20:45.034Z,0
2018-05-04T00:21:25.557Z,0
2018-05-04T00:22:06.970Z,0
2018-05-04T00:22:47.476Z,0
2018-05-04T00:23:27.969Z,0
2018-05-04T00:24:08.463Z,0
2018-05-04T00:24:48.949Z,0
2018-05-04T00:25:29.438Z,0
2018-05-04T00:26:09.926Z,0
2018-05-04T00:26:50.443Z,0
2018-05-04T00:27:30.964Z,0
2018-05-04T00:28:11.495Z,0
2018-05-04T00:28:52.025Z,0
2018-05-04T00:29:32.553Z,0
2018-05-04T00:30:13.080Z,0
2018-05-04T00:30:53.613Z,0
2018-05-04T00:31:34.149Z,0
2018-05-04T00:32:14.684Z,0
2018-05-04T00:32:55.214Z,0
2018-05-04T00:33:35.743Z,0
2018-05-04T00:34:16.259Z,0
2018-05-04T00:34:56.781Z,0
2018-05-04T00:35:37.324Z,0
2018-05-04T00:36:17.840Z,0
2018-05-04T00:36:59.209Z,0
2018-05-04T00:37:39.737Z,0
2018-05-04T00:38:20.271Z,0
2018-05-04T00:39:00.794Z,0
2018-05-04T00:39:41.316Z,0
2018-05-04T00:40:22.354Z,0
2018-05-04T00:41:02.371Z,0
2018-05-04T00:41:42.904Z,0
2018-05-04T00:42:23.429Z,0
2018-05-04T00:43:03.954Z,0
2018-05-04T00:43:44.485Z,0
2018-05-04T00:44:25.017Z,0
2018-05-04T00:45:05.540Z,0
2018-05-04T00:45:46.047Z,0
2018-05-04T00:46:26.581Z,0
2018-05-04T00:47:07.116Z,0
2018-05-04T00:47:47.640Z,0
2018-05-04T00:48:28.157Z,0
2018-05-04T00:49:08.685Z,0
2018-05-04T00:49:49.216Z,0
2018-05-04T00:50:29.742Z,0
2018-05-04T00:51:10.263Z,0
2018-05-04T00:51:50.785Z,0
2018-05-04T00:52:31.320Z,0
2018-05-04T00:53:11.833Z,0
2018-05-04T00:53:52.343Z,0
2018-05-04T00:54:32.865Z,0
2018-05-04T00:55:13.394Z,0
2018-05-04T00:55:53.920Z,0
2018-05-04T00:56:34.445Z,0
2018-05-04T00:57:14.949Z,0
2018-05-04T00:57:55.450Z,0
2018-05-04T00:58:35.985Z,0
2018-05-04T00:59:17.270Z,0
2018-05-04T00:59:57.788Z,0
2018-05-04T01:00:38.308Z,0
2018-05-04T01:01:19.358Z,0
2018-05-04T01:01:59.872Z,0
2018-05-04T01:02:40.413Z,0
2018-05-04T01:03:20.911Z,0
2018-05-04T01:04:01.433Z,0
2018-05-04T01:04:41.933Z,0
2018-05-04T01:05:22.422Z,0
2018-05-04T01:06:02.965Z,0
2018-05-04T01:06:43.471Z,0
2018-05-04T01:07:23.997Z,0
2018-05-04T01:08:04.551Z,0
2018-05-04T01:08:45.057Z,0
2018-05-04T01:09:25.575Z,0
2018-05-04T01:10:06.098Z,0
2018-05-04T01:10:46.628Z,0
2018-05-04T01:11:27.154Z,0
2018-05-04T01:12:07.673Z,0
2018-05-04T01:12:48.194Z,0
2018-05-04T01:13:28.719Z,0
2018-05-04T01:14:09.244Z,0
2018-05-04T01:14:49.774Z,0
2018-05-04T01:15:30.302Z,0
2018-05-04T01:16:10.830Z,0
2018-05-04T01:16:51.862Z,0
2018-05-04T01:17:31.872Z,0
2018-05-04T01:18:12.405Z,0
2018-05-04T01:18:52.936Z,0
2018-05-04T01:19:33.450Z,0
2018-05-04T01:20:13.968Z,0
2018-05-04T01:20:54.481Z,0
2018-05-04T01:21:35.008Z,0
2018-05-04T01:22:15.511Z,0
2018-05-04T01:22:56.029Z,0
2018-05-04T01:23:36.565Z,0
2018-05-04T01:24:17.083Z,0
2018-05-04T01:24:57.605Z,0
2018-05-04T01:25:38.140Z,0
2018-05-04T01:26:19.234Z,0
2018-05-04T01:26:59.737Z,0
2018-05-04T01:27:40.271Z,0
2018-05-04T01:28:20.787Z,0
2018-05-04T01:29:01.320Z,0
2018-05-04T01:29:41.850Z,0
2018-05-04T01:30:22.377Z,0
2018-05-04T01:31:02.906Z,0
2018-05-04T01:31:43.420Z,0
2018-05-04T01:32:23.949Z,0
2018-05-04T01:33:04.478Z,0
2018-05-04T01:33:45.002Z,0
2018-05-04T01:34:26.394Z,0
2018-05-04T01:35:06.939Z,0
2018-05-04T01:35:47.463Z,0
2018-05-04T01:36:27.997Z,0
2018-05-04T01:37:08.525Z,0
2018-05-04T01:37:49.054Z,0
2018-05-04T01:38:29.580Z,0
2018-05-04T01:39:10.103Z,0
2018-05-04T01:39:50.628Z,0
2018-05-04T01:40:31.161Z,0
2018-05-04T01:41:11.679Z,0
2018-05-04T01:41:52.171Z,0
2018-05-04T01:42:32.687Z,0
2018-05-04T01:43:13.215Z,0
2018-05-04T01:43:53.736Z,0
2018-05-04T01:44:34.260Z,0
2018-05-04T01:45:14.784Z,0
2018-05-04T01:45:55.313Z,0
2018-05-04T01:46:35.843Z,0
2018-05-04T01:47:16.374Z,0
2018-05-04T01:47:56.897Z,0
2018-05-04T01:48:37.419Z,0
2018-05-04T01:49:18.869Z,0
2018-05-04T01:49:58.467Z,0
2018-05-04T01:50:38.971Z,0
2018-05-04T01:51:19.493Z,0
2018-05-04T01:52:00.027Z,0
2018-05-04T01:52:40.548Z,0
2018-05-04T01:53:21.771Z,0
2018-05-04T01:54:02.297Z,0
2018-05-04T01:54:42.829Z,0
2018-05-04T01:55:23.364Z,0
2018-05-04T01:56:03.884Z,0
2018-05-04T01:56:44.411Z,0
2018-05-04T01:57:24.938Z,0
2018-05-04T01:58:05.453Z,0
2018-05-04T01:58:45.979Z,0
2018-05-04T01:59:26.512Z,0
2018-05-04T02:00:07.023Z,0
2018-05-04T02:00:47.507Z,0
2018-05-04T02:01:28.023Z,0
2018-05-04T02:02:08.575Z,4
2018-05-04T02:02:49.090Z,4
2018-05-04T02:03:29.612Z,4
2018-05-04T02:04:10.134Z,0
2018-05-04T02:04:50.655Z,0
2018-05-04T02:05:31.170Z,0
2018-05-04T02:06:11.681Z,0
2018-05-04T02:06:52.204Z,0
2018-05-04T02:07:32.732Z,0
2018-05-04T02:08:13.258Z,0
2018-05-04T02:08:53.783Z,0
2018-05-04T02:09:34.304Z,0
2018-05-04T02:10:15.336Z,0
2018-05-04T02:10:55.867Z,0
2018-05-04T02:11:36.399Z,0
2018-05-04T02:12:16.925Z,0
2018-05-04T02:12:57.450Z,0
2018-05-04T02:13:37.980Z,0
2018-05-04T02:14:18.511Z,0
2018-05-04T02:14:59.036Z,0
2018-05-04T02:15:39.563Z,0
2018-05-04T02:16:20.093Z,0
2018-05-04T02:17:00.618Z,0
2018-05-04T02:17:41.143Z,0
2018-05-04T02:18:21.667Z,0
2018-05-04T02:19:02.185Z,0
2018-05-04T02:19:42.706Z,0
2018-05-04T02:20:23.239Z,0
2018-05-04T02:21:03.757Z,0
2018-05-04T02:21:44.286Z,0
2018-05-04T02:22:24.835Z,0
2018-05-04T02:23:05.371Z,0
2018-05-04T02:23:45.857Z,0
2018-05-04T02:24:26.378Z,0
2018-05-04T02:25:06.907Z,0
2018-05-04T02:25:47.402Z,0
2018-05-04T02:26:27.929Z,0
2018-05-04T02:27:08.453Z,0
2018-05-04T02:27:48.965Z,0
2018-05-04T02:28:29.484Z,0
2018-05-04T02:29:10.014Z,0
2018-05-04T02:29:50.547Z,0
2018-05-04T02:30:31.068Z,0
2018-05-04T02:31:11.591Z,0
2018-05-04T02:31:52.100Z,0
2018-05-04T02:32:32.652Z,0
2018-05-04T02:33:13.181Z,0
2018-05-04T02:33:53.707Z,0
2018-05-04T02:34:34.235Z,0
2018-05-04T02:35:14.756Z,0
2018-05-04T02:35:55.279Z,0
2018-05-04T02:36:35.814Z,0
2018-05-04T02:37:16.344Z,0
2018-05-04T02:37:56.874Z,0
2018-05-04T02:38:37.404Z,0
2018-05-04T02:39:18.866Z,0
2018-05-04T02:39:59.375Z,0
2018-05-04T02:40:39.887Z,0
2018-05-04T02:41:20.391Z,0
2018-05-04T02:42:01.876Z,0
2018-05-04T02:42:41.405Z,0
2018-05-04T02:43:21.912Z,0
2018-05-04T02:44:02.440Z,0
2018-05-04T02:44:42.954Z,0
2018-05-04T02:45:23.489Z,0
2018-05-04T02:46:04.019Z,0
2018-05-04T02:46:44.542Z,0
2018-05-04T02:47:25.077Z,0
2018-05-04T02:48:05.604Z,0
2018-05-04T02:48:46.128Z,0
2018-05-04T02:49:26.651Z,0
2018-05-04T02:50:07.178Z,0
2018-05-04T02:50:47.706Z,0
2018-05-04T02:51:28.236Z,0
2018-05-04T02:52:08.765Z,0
2018-05-04T02:52:49.266Z,0
2018-05-04T02:53:29.781Z,0
2018-05-04T02:54:10.309Z,0
2018-05-04T02:54:50.836Z,0
2018-05-04T02:55:31.358Z,0
2018-05-04T02:56:11.888Z,0
2018-05-04T02:56:52.423Z,0
2018-05-04T02:57:32.945Z,0
2018-05-04T02:58:13.467Z,0
2018-05-04T02:58:53.993Z,0
2018-05-04T02:59:34.765Z,0
2018-05-04T03:00:15.287Z,0
2018-05-04T03:00:55.819Z,0
2018-05-04T03:01:36.349Z,0
2018-05-04T03:02:16.869Z,0
2018-05-04T03:02:57.404Z,0
2018-05-04T03:03:37.933Z,0
2018-05-04T03:04:19.381Z,0
2018-05-04T03:04:58.996Z,0
2018-05-04T03:05:39.517Z,0
2018-05-04T03:06:20.051Z,0
2018-05-04T03:07:01.383Z,0
2018-05-04T03:07:41.912Z,0
2018-05-04T03:08:22.434Z,0
2018-05-04T03:09:02.947Z,0
2018-05-04T03:09:43.477Z,0
2018-05-04T03:10:24.013Z,0
2018-05-04T03:11:04.556Z,0
2018-05-04T03:11:45.099Z,16
2018-05-04T03:12:25.551Z,16
2018-05-04T03:13:06.086Z,0
2018-05-04T03:13:46.602Z,0
2018-05-04T03:14:27.053Z,0
2018-05-04T03:15:07.553Z,0
2018-05-04T03:15:48.050Z,0
2018-05-04T03:16:28.515Z,0
2018-05-04T03:17:09.023Z,8
2018-05-04T03:17:49.531Z,0
2018-05-04T03:18:30.054Z,0
2018-05-04T03:19:10.633Z,0
2018-05-04T03:19:51.147Z,0
2018-05-04T03:20:31.635Z,0
2018-05-04T03:21:12.308Z,0
2018-05-04T03:21:52.777Z,12
2018-05-04T03:22:33.239Z,12
2018-05-04T03:23:15.880Z,12
2018-05-04T03:23:55.559Z,16
2018-05-04T03:24:36.513Z,16
2018-05-04T03:25:17.016Z,16
2018-05-04T03:25:57.511Z,16
2018-05-04T03:26:38.000Z,16
2018-05-04T03:27:18.844Z,16
2018-05-04T03:27:59.478Z,16
2018-05-04T03:28:39.936Z,16
2018-05-04T03:29:20.687Z,16
2018-05-04T03:30:01.246Z,16
2018-05-04T03:30:41.793Z,12
2018-05-04T03:31:22.288Z,4
2018-05-04T03:32:02.810Z,4
2018-05-04T03:32:43.307Z,4
2018-05-04T03:33:24.220Z,4
2018-05-04T03:34:04.792Z,4
2018-05-04T03:34:46.368Z,8
2018-05-04T03:35:27.093Z,4
2018-05-04T03:36:07.693Z,8
2018-05-04T03:36:48.196Z,8
2018-05-04T03:37:28.695Z,12
2018-05-04T03:38:09.182Z,12
2018-05-04T03:38:50.388Z,12
2018-05-04T03:39:30.225Z,16
2018-05-04T03:40:10.736Z,16
2018-05-04T03:40:53.018Z,20
2018-05-04T03:41:33.495Z,20
2018-05-04T03:42:14.113Z,24
2018-05-04T03:42:54.957Z,24
2018-05-04T03:43:35.331Z,24
2018-05-04T03:44:16.025Z,24
2018-05-04T03:44:57.405Z,20
2018-05-04T03:45:38.283Z,24
2018-05-04T03:46:18.788Z,28
2018-05-04T03:46:59.268Z,32
2018-05-04T03:47:39.777Z,32
2018-05-04T03:48:20.872Z,32
2018-05-04T03:49:01.436Z,32
2018-05-04T03:49:41.967Z,36
2018-05-04T03:50:22.454Z,36
2018-05-04T03:51:02.969Z,40
2018-05-04T03:51:43.493Z,44
2018-05-04T03:52:23.996Z,44
2018-05-04T03:53:04.481Z,48
2018-05-04T03:53:45.052Z,52
2018-05-04T03:54:25.530Z,60
2018-05-04T03:55:06.273Z,72
2018-05-04T03:55:46.783Z,68
2018-05-04T03:56:27.302Z,52
2018-05-04T03:57:07.779Z,56
2018-05-04T03:57:48.286Z,56
2018-05-04T03:58:28.804Z,56
2018-05-04T03:59:10.196Z,64
2018-05-04T03:59:50.683Z,64
2018-05-04T04:00:31.196Z,64
2018-05-04T04:01:11.726Z,68
2018-05-04T04:01:52.227Z,72
2018-05-04T04:02:32.750Z,76
2018-05-04T04:03:13.218Z,80
2018-05-04T04:03:53.737Z,80
2018-05-04T04:04:34.232Z,80
2018-05-04T04:05:14.729Z,84
2018-05-04T04:05:55.230Z,84
2018-05-04T04:06:35.740Z,92
2018-05-04T04:07:16.284Z,100
2018-05-04T04:07:56.770Z,108
2018-05-04T04:08:37.263Z,120
2018-05-04T04:09:17.766Z,132
2018-05-04T04:09:58.265Z,144
2018-05-04T04:10:39.684Z,156
2018-05-04T04:11:20.169Z,172
2018-05-04T04:12:00.663Z,208
2018-05-04T04:12:41.233Z,252
2018-05-04T04:13:21.729Z,300
2018-05-04T04:14:02.268Z,340
2018-05-04T04:14:42.763Z,364
2018-05-04T04:15:23.280Z,372
2018-05-04T04:16:03.750Z,400
2018-05-04T04:16:44.268Z,448
2018-05-04T04:17:24.843Z,476
2018-05-04T04:18:05.360Z,480
2018-05-04T04:18:45.771Z,464
2018-05-04T04:19:26.295Z,488
2018-05-04T04:20:06.767Z,492
2018-05-04T04:20:47.288Z,484
2018-05-04T04:21:27.817Z,484
2018-05-04T04:22:08.337Z,484
2018-05-04T04:22:48.868Z,496
2018-05-04T04:23:29.394Z,504
2018-05-04T04:24:09.919Z,516
2018-05-04T04:24:50.450Z,520
2018-05-04T04:25:30.973Z,500
2018-05-04T04:26:11.496Z,480
2018-05-04T04:26:52.022Z,464
2018-05-04T04:27:32.523Z,468
2018-05-04T04:28:13.066Z,488
2018-05-04T04:28:53.587Z,528
2018-05-04T04:29:34.114Z,584
2018-05-04T04:30:14.646Z,656
2018-05-04T04:30:55.176Z,700
2018-05-04T04:31:35.708Z,712
2018-05-04T04:32:16.279Z,700
2018-05-04T04:32:56.747Z,676
2018-05-04T04:33:37.267Z,684
2018-05-04T04:34:17.784Z,724
2018-05-04T04:34:59.247Z,768
2018-05-04T04:35:40.397Z,800
2018-05-04T04:36:20.286Z,816
2018-05-04T04:37:00.804Z,820
2018-05-04T04:37:42.163Z,820
2018-05-04T04:38:22.669Z,820
2018-05-04T04:39:03.202Z,784
2018-05-04T04:39:43.739Z,756
2018-05-04T04:40:24.265Z,776
2018-05-04T04:41:04.779Z,836
2018-05-04T04:41:45.311Z,892
2018-05-04T04:42:25.834Z,888
2018-05-04T04:43:06.346Z,848
2018-05-04T04:43:46.871Z,872
2018-05-04T04:44:27.393Z,916
2018-05-04T04:45:07.915Z,956
2018-05-04T04:45:48.437Z,1020
2018-05-04T04:46:28.960Z,1152
2018-05-04T04:47:09.494Z,1404
2018-05-04T04:47:50.019Z,1744
2018-05-04T04:48:30.584Z,2048
2018-05-04T04:49:11.117Z,2176
2018-05-04T04:49:51.628Z,2248
2018-05-04T04:50:32.152Z,2284
2018-05-04T04:51:12.680Z,2296
2018-05-04T04:51:53.187Z,2292
2018-05-04T04:52:34.473Z,2080
2018-05-04T04:53:14.250Z,2040
2018-05-04T04:53:54.788Z,1972
2018-05-04T04:54:35.902Z,1936
2018-05-04T04:55:15.832Z,1896
2018-05-04T04:55:56.361Z,1832
2018-05-04T04:56:36.890Z,1724
2018-05-04T04:57:17.416Z,1640
2018-05-04T04:57:57.946Z,1636
2018-05-04T04:58:38.474Z,1704
2018-05-04T04:59:19.253Z,1820
2018-05-04T04:59:59.781Z,1972
2018-05-04T05:00:40.311Z,2132
2018-05-04T05:01:20.835Z,2320
2018-05-04T05:02:04.065Z,2544
2018-05-04T05:02:44.590Z,2636
2018-05-04T05:03:25.113Z,2692
2018-05-04T05:04:05.643Z,2832
2018-05-04T05:04:46.181Z,3152
2018-05-04T05:05:26.718Z,3536
2018-05-04T05:06:07.239Z,3984
2018-05-04T05:06:48.406Z,4316
2018-05-04T05:07:28.397Z,4580
2018-05-04T05:08:08.941Z,4832
2018-05-04T05:08:50.405Z,4940
2018-05-04T05:09:30.065Z,4984
2018-05-04T05:10:10.675Z,4740
2018-05-04T05:10:51.120Z,4604
2018-05-04T05:11:32.403Z,4592
2018-05-04T05:12:12.177Z,4608
2018-05-04T05:12:53.363Z,4648
2018-05-04T05:13:33.953Z,4600
2018-05-04T05:14:14.409Z,4576
2018-05-04T05:14:54.958Z,4592
2018-05-04T05:15:35.485Z,4644
2018-05-04T05:16:16.016Z,4748
2018-05-04T05:16:56.534Z,4896
2018-05-04T05:17:37.068Z,5064
2018-05-04T05:18:17.603Z,5192
2018-05-04T05:18:58.135Z,5284
2018-05-04T05:19:38.689Z,5472
2018-05-04T05:20:19.398Z,5632
2018-05-04T05:20:59.924Z,5808
2018-05-04T05:21:40.458Z,5980
2018-05-04T05:22:20.987Z,6072
2018-05-04T05:23:01.501Z,6088
2018-05-04T05:23:42.103Z,6036
2018-05-04T05:24:22.526Z,6696
2018-05-04T05:25:03.031Z,6944
2018-05-04T05:25:43.519Z,7156
2018-05-04T05:26:24.034Z,7372
2018-05-04T05:27:04.695Z,7600
2018-05-04T05:27:45.137Z,7652
2018-05-04T05:28:26.729Z,7744
2018-05-04T05:29:07.216Z,7856
2018-05-04T05:29:47.799Z,7936
2018-05-04T05:30:28.170Z,8028
2018-05-04T05:31:09.420Z,8112
2018-05-04T05:31:49.374Z,7932
2018-05-04T05:32:29.856Z,7744
2018-05-04T05:33:10.282Z,7656
2018-05-04T05:33:50.770Z,7472
2018-05-04T05:34:31.373Z,7340
2018-05-04T05:35:11.837Z,7300
2018-05-04T05:35:52.414Z,7276
2018-05-04T05:36:32.801Z,7388
2018-05-04T05:37:13.244Z,7440
2018-05-04T05:37:53.736Z,7240
2018-05-04T05:38:34.259Z,6956
2018-05-04T05:39:14.751Z,6796
2018-05-04T05:39:55.198Z,7152
2018-05-04T05:40:35.741Z,7720
2018-05-04T05:41:16.197Z,8044
2018-05-04T05:41:56.682Z,8580
2018-05-04T05:42:37.909Z,8104
2018-05-04T05:43:17.729Z,7576
2018-05-04T05:43:58.177Z,7292
2018-05-04T05:44:38.720Z,6824
2018-05-04T05:45:20.411Z,6308
2018-05-04T05:46:00.553Z,5616
2018-05-04T05:46:41.051Z,5456
2018-05-04T05:47:22.389Z,5928
2018-05-04T05:48:02.869Z,6580
2018-05-04T05:48:43.913Z,6692
2018-05-04T05:49:23.934Z,6176
2018-05-04T05:50:04.914Z,5616
2018-05-04T05:50:44.963Z,5852
2018-05-04T05:51:25.428Z,5980
2018-05-04T05:52:06.004Z,5956
2018-05-04T05:52:46.533Z,6364
2018-05-04T05:53:27.017Z,6408
2018-05-04T05:54:07.489Z,6280
2018-05-04T05:54:48.414Z,6172
2018-05-04T05:55:28.455Z,6524
2018-05-04T05:56:08.924Z,6844
2018-05-04T05:56:49.524Z,7108
2018-05-04T05:57:30.013Z,7148
2018-05-04T05:58:10.671Z,7652
2018-05-04T05:58:51.504Z,8424
2018-05-04T05:59:32.819Z,9624
2018-05-04T06:00:13.234Z,10956
2018-05-04T06:00:54.462Z,11712
2018-05-04T06:01:35.338Z,13184
2018-05-04T06:02:15.796Z,14116
2018-05-04T06:02:56.364Z,14552
2018-05-04T06:03:36.857Z,14536
2018-05-04T06:04:17.354Z,14196
2018-05-04T06:04:57.815Z,13344
2018-05-04T06:05:38.327Z,12228
2018-05-04T06:06:18.842Z,11532
2018-05-04T06:06:59.357Z,11564
2018-05-04T06:07:40.219Z,11728
2018-05-04T06:08:21.358Z,10948
2018-05-04T06:09:01.881Z,9572
2018-05-04T06:09:42.368Z,8504
2018-05-04T06:10:22.855Z,7872
2018-05-04T06:11:03.448Z,7516
2018-05-04T06:11:43.884Z,7420
2018-05-04T06:12:24.351Z,7300
2018-05-04T06:13:04.947Z,7272
2018-05-04T06:13:45.389Z,7336
2018-05-04T06:14:25.923Z,7532
2018-05-04T06:15:06.363Z,7540
2018-05-04T06:15:46.925Z,7436
2018-05-04T06:16:27.407Z,7164
2018-05-04T06:17:07.881Z,6484
2018-05-04T06:17:48.427Z,6000
2018-05-04T06:18:28.883Z,5872
2018-05-04T06:19:09.923Z,6040
2018-05-04T06:19:49.837Z,6636
2018-05-04T06:20:30.472Z,7712
2018-05-04T06:21:10.970Z,8828
2018-05-04T06:21:51.399Z,9304
2018-05-04T06:22:32.425Z,8932
2018-05-04T06:23:12.439Z,8008
2018-05-04T06:23:52.877Z,6940
2018-05-04T06:24:33.493Z,6836
2018-05-04T06:25:14.160Z,7452
2018-05-04T06:25:54.481Z,8068
2018-05-04T06:26:35.040Z,8148
2018-05-04T06:27:16.429Z,7472
2018-05-04T06:27:56.194Z,6500
2018-05-04T06:28:37.590Z,6184
2018-05-04T06:29:18.184Z,6788
2018-05-04T06:29:59.555Z,7316
2018-05-04T06:30:40.039Z,7540
2018-05-04T06:31:20.523Z,7368
2018-05-04T06:32:01.097Z,7504
2018-05-04T06:32:41.576Z,7856
2018-05-04T06:33:22.035Z,8252
2018-05-04T06:34:02.538Z,8692
2018-05-04T06:34:43.965Z,9020
2018-05-04T06:35:23.582Z,8908
2018-05-04T06:36:04.042Z,8680
2018-05-04T06:36:44.648Z,8696
2018-05-04T06:37:25.002Z,8996
2018-05-04T06:38:05.483Z,9696
2018-05-04T06:38:45.967Z,10224
2018-05-04T06:39:26.476Z,10276
2018-05-04T06:40:06.963Z,9908
2018-05-04T06:40:47.451Z,9564
2018-05-04T06:41:28.945Z,9232
2018-05-04T06:42:08.489Z,9152
2018-05-04T06:42:48.994Z,9180
2018-05-04T06:43:29.479Z,9032
2018-05-04T06:44:09.977Z,8740
2018-05-04T06:44:50.475Z,8148
2018-05-04T06:45:30.956Z,7608
2018-05-04T06:46:11.447Z,7468
2018-05-04T06:46:51.964Z,7244
2018-05-04T06:47:32.513Z,7124
2018-05-04T06:48:12.955Z,6724
2018-05-04T06:48:53.458Z,6616
2018-05-04T06:49:33.949Z,6504
2018-05-04T06:50:14.451Z,6388
2018-05-04T06:50:54.942Z,6340
2018-05-04T06:51:35.446Z,6396
2018-05-04T06:52:15.956Z,6516
2018-05-04T06:52:56.411Z,6516
2018-05-04T06:53:36.956Z,6428
2018-05-04T06:54:17.444Z,6216
2018-05-04T06:54:57.946Z,6076
2018-05-04T06:55:38.427Z,5956
2018-05-04T06:56:19.871Z,5780
2018-05-04T06:57:00.357Z,5928
2018-05-04T06:57:40.859Z,5964
2018-05-04T06:58:21.346Z,6104
2018-05-04T06:59:01.903Z,6540
2018-05-04T06:59:42.326Z,7140
2018-05-04T07:00:22.834Z,7504
2018-05-04T07:01:04.216Z,7404
2018-05-04T07:01:44.679Z,7096
2018-05-04T07:02:25.171Z,6772
2018-05-04T07:03:05.693Z,6724
2018-05-04T07:03:46.194Z,6484
2018-05-04T07:04:26.659Z,6372
2018-05-04T07:05:07.156Z,6068
2018-05-04T07:05:47.662Z,5840
2018-05-04T07:06:28.937Z,5640
2018-05-04T07:07:08.650Z,5596
2018-05-04T07:07:49.110Z,5484
2018-05-04T07:08:29.602Z,5416
2018-05-04T07:09:10.364Z,5444
2018-05-04T07:09:50.867Z,5540
2018-05-04T07:10:32.121Z,5496
2018-05-04T07:11:12.549Z,5236
2018-05-04T07:11:53.057Z,5096
2018-05-04T07:12:33.568Z,5116
2018-05-04T07:13:14.049Z,5060
2018-05-04T07:13:54.598Z,5144
2018-05-04T07:14:35.105Z,5132
2018-05-04T07:15:15.616Z,5212
2018-05-04T07:15:56.116Z,5252
2018-05-04T07:16:36.598Z,5360
2018-05-04T07:17:17.052Z,5192
2018-05-04T07:17:57.618Z,5088
2018-05-04T07:18:38.670Z,5184
2018-05-04T07:19:19.192Z,5160
2018-05-04T07:19:59.891Z,5084
2018-05-04T07:20:40.394Z,5268
2018-05-04T07:21:21.039Z,5388
2018-05-04T07:22:01.616Z,5240
2018-05-04T07:22:42.048Z,5248
2018-05-04T07:23:22.637Z,5220
2018-05-04T07:24:03.178Z,5164
2018-05-04T07:24:43.715Z,5036
2018-05-04T07:25:24.215Z,5312
2018-05-04T07:26:04.708Z,5584
2018-05-04T07:26:45.221Z,5744
2018-05-04T07:27:25.744Z,5848
2018-05-04T07:28:06.268Z,6444
2018-05-04T07:28:46.771Z,7064
2018-05-04T07:29:27.321Z,6936
2018-05-04T07:30:07.801Z,7060
2018-05-04T07:30:48.346Z,7280
2018-05-04T07:31:28.862Z,7336
2018-05-04T07:32:09.380Z,7500
2018-05-04T07:32:49.855Z,7884
2018-05-04T07:33:30.374Z,8728
2018-05-04T07:34:10.824Z,9236
2018-05-04T07:34:51.347Z,9788
2018-05-04T07:35:31.871Z,9816
2018-05-04T07:36:12.385Z,9980
2018-05-04T07:36:53.463Z,10148
2018-05-04T07:37:34.003Z,9656
2018-05-04T07:38:14.526Z,9216
2018-05-04T07:38:54.989Z,9052
2018-05-04T07:39:35.520Z,8848
2018-05-04T07:40:15.994Z,8736
2018-05-04T07:40:56.505Z,8552
2018-05-04T07:41:37.032Z,8688
2018-05-04T07:42:17.520Z,8724
2018-05-04T07:42:58.022Z,8816
2018-05-04T07:43:38.557Z,8728
2018-05-04T07:44:19.014Z,8640
2018-05-04T07:44:59.650Z,8268
2018-05-04T07:45:40.022Z,7824
2018-05-04T07:46:20.520Z,7524
2018-05-04T07:47:01.089Z,7524
2018-05-04T07:47:41.564Z,7708
2018-05-04T07:48:22.086Z,7988
2018-05-04T07:49:02.579Z,8148
2018-05-04T07:49:43.884Z,8076
2018-05-04T07:50:24.358Z,8092
2018-05-04T07:51:04.837Z,7944
2018-05-04T07:51:45.388Z,7720
2018-05-04T07:52:25.915Z,7712
2018-05-04T07:53:06.445Z,7868
2018-05-04T07:53:46.930Z,8420
2018-05-04T07:57:06.409Z,10912
2018-05-04T07:57:46.909Z,12452
2018-05-04T07:58:27.424Z,14004
2018-05-04T07:59:08.177Z,15140
2018-05-04T07:59:48.676Z,17024
2018-05-04T08:00:29.125Z,19328
2018-05-04T08:01:09.619Z,22976
2018-05-04T08:01:50.102Z,21568
2018-05-04T08:02:30.630Z,19872
2018-05-04T08:03:11.777Z,19424
2018-05-04T08:03:52.291Z,20800
2018-05-04T08:04:32.777Z,21472
2018-05-04T08:05:13.273Z,23968
2018-05-04T08:05:53.794Z,31264
2018-05-04T08:06:34.304Z,28992
2018-05-04T08:07:14.844Z,26304
2018-05-04T08:07:55.337Z,25504
2018-05-04T08:08:35.891Z,25152
2018-05-04T08:09:16.379Z,23712
2018-05-04T08:09:56.918Z,27648
2018-05-04T08:10:37.435Z,25760
2018-05-04T08:11:17.963Z,25216
2018-05-04T08:11:58.530Z,29984
2018-05-04T08:12:39.040Z,26272
2018-05-04T08:13:19.570Z,23936
2018-05-04T08:14:00.101Z,27616
2018-05-04T08:14:40.626Z,33280
2018-05-04T08:15:21.164Z,28416
2018-05-04T08:16:01.701Z,22400
2018-05-04T08:16:42.228Z,22752
2018-05-04T08:17:22.746Z,22336
2018-05-04T08:18:03.283Z,24480
2018-05-04T08:18:43.819Z,24128
2018-05-04T08:19:24.353Z,22176
2018-05-04T08:20:04.982Z,21344
2018-05-04T08:20:45.428Z,19552
2018-05-04T08:21:25.952Z,20512
2018-05-04T08:22:07.786Z,21312
2018-05-04T08:22:48.311Z,17824
2018-05-04T08:23:28.838Z,16064
2018-05-04T08:24:09.370Z,15680
2018-05-04T08:24:49.901Z,16992
2018-05-04T08:25:31.229Z,18496
2018-05-04T08:26:11.756Z,20352
2018-05-04T08:26:52.288Z,20160
2018-05-04T08:27:32.818Z,17408
2018-05-04T08:28:13.344Z,16512
2018-05-04T08:28:53.869Z,17120
2018-05-04T08:29:34.406Z,20832
2018-05-04T08:30:14.941Z,18976
2018-05-04T08:30:55.477Z,20288
2018-05-04T08:31:36.012Z,18112
2018-05-04T08:32:16.540Z,18368
2018-05-04T08:32:57.059Z,18848
2018-05-04T08:33:37.595Z,21280
2018-05-04T08:34:19.083Z,23424
2018-05-04T08:34:59.617Z,27712
2018-05-04T08:35:40.151Z,45760
2018-05-04T08:36:20.691Z,54432
2018-05-04T08:37:01.218Z,55680
2018-05-04T08:37:41.765Z,50432
2018-05-04T08:38:22.284Z,50912
2018-05-04T08:39:02.822Z,51488
2018-05-04T08:39:43.357Z,49056
2018-05-04T08:40:23.893Z,55040
2018-05-04T08:41:04.425Z,54464
2018-05-04T08:41:44.971Z,53696
2018-05-04T08:42:25.485Z,54112
2018-05-04T08:43:06.133Z,55776
2018-05-04T08:43:46.555Z,53536
2018-05-04T08:44:27.097Z,52128
2018-05-04T08:45:07.626Z,41248
2018-05-04T08:45:48.171Z,30304
2018-05-04T08:46:28.686Z,41472
2018-05-04T08:47:09.223Z,30912
2018-05-04T08:47:49.751Z,24960
2018-05-04T08:48:30.280Z,41056
2018-05-04T08:49:10.819Z,29408
2018-05-04T08:49:51.350Z,55264
2018-05-04T08:50:31.887Z,61152
2018-05-04T08:51:12.483Z,52512
2018-05-04T08:51:52.962Z,32704
2018-05-04T08:52:33.505Z,54816
2018-05-04T08:53:14.022Z,43136
2018-05-04T08:53:54.541Z,56320
2018-05-04T08:54:35.096Z,27168
2018-05-04T08:55:15.658Z,41024
2018-05-04T08:55:56.185Z,38304
2018-05-04T08:56:37.360Z,46784
2018-05-04T08:57:17.961Z,29472
2018-05-04T08:57:58.447Z,23456
2018-05-04T08:58:39.042Z,19744
2018-05-04T08:59:20.243Z,19328
2018-05-04T09:00:00.045Z,20928
2018-05-04T09:00:40.572Z,36160
2018-05-04T09:01:21.101Z,30496
2018-05-04T09:02:01.644Z,33696
2018-05-04T09:02:42.189Z,33696
2018-05-04T09:03:22.697Z,35584
2018-05-04T09:04:03.235Z,22304
2018-05-04T09:04:43.772Z,19712
2018-05-04T09:05:24.855Z,19584
2018-05-04T09:06:05.360Z,14980
2018-05-04T09:06:45.903Z,14296
2018-05-04T09:07:27.372Z,15712
2018-05-04T09:08:07.919Z,16640
2018-05-04T09:08:49.034Z,19200
2018-05-04T09:09:30.151Z,19680
2018-05-04T09:10:11.389Z,20128
2018-05-04T09:10:51.913Z,53856
2018-05-04T09:11:32.511Z,56224
2018-05-04T09:12:13.045Z,56960
2018-05-04T09:12:53.584Z,70720
2018-05-04T09:13:34.103Z,70496
2018-05-04T09:14:14.642Z,71552
2018-05-04T09:14:55.184Z,65600
2018-05-04T09:15:35.723Z,71712
2018-05-04T09:16:16.704Z,71840
2018-05-04T09:16:57.234Z,60512
2018-05-04T09:17:37.764Z,71648
2018-05-04T09:18:18.304Z,42848
2018-05-04T09:18:58.846Z,74816
2018-05-04T09:19:39.381Z,75264
2018-05-04T09:20:19.922Z,57024
2018-05-04T09:21:00.448Z,68192
2018-05-04T09:21:40.987Z,28320
2018-05-04T09:22:21.526Z,22080
2018-05-04T09:23:02.068Z,45728
2018-05-04T09:23:42.612Z,31904
2018-05-04T09:24:23.152Z,19424